sensor_id;sensor_type;location;lat;lon;timestamp;pressure;altitude;pressure_sealevel;temperature;humidity
66381;BME280;53177;52.648;1.214;2024-03-07T00:00:20;102011.78;;;5.35;100.00
66381;BME280;53177;52.648;1.214;2024-03-07T00:02:50;102020.50;;;5.34;100.00
66381;BME280;53177;52.648;1.214;2024-03-07T00:05:21;102015.16;;;5.29;100.00
66381;BME280;53177;52.648;1.214;2024-03-07T00:07:49;102016.16;;;5.36;100.00
66381;BME280;53177;52.648;1.214;2024-03-07T00:10:15;102017.16;;;5.41;100.00
66381;BME280;53177;52.648;1.214;2024-03-07T00:12:42;102024.25;;;5.47;100.00
66381;BME280;53177;52.648;1.214;2024-03-07T00:15:09;102018.19;;;5.51;100.00
66381;BME280;53177;52.648;1.214;2024-03-07T00:17:36;102007.69;;;5.49;100.00
66381;BME280;53177;52.648;1.214;2024-03-07T00:20:02;102010.25;;;5.48;100.00
66381;BME280;53177;52.648;1.214;2024-03-07T00:22:29;102012.88;;;5.48;100.00
66381;BME280;53177;52.648;1.214;2024-03-07T00:24:55;102015.50;;;5.48;100.00
66381;BME280;53177;52.648;1.214;2024-03-07T00:27:22;102006.84;;;5.52;100.00
66381;BME280;53177;52.648;1.214;2024-03-07T00:29:48;102008.53;;;5.47;100.00
66381;BME280;53177;52.648;1.214;2024-03-07T00:32:22;102007.69;;;5.49;100.00
66381;BME280;53177;52.648;1.214;2024-03-07T00:34:48;102011.94;;;5.43;100.00
66381;BME280;53177;52.648;1.214;2024-03-07T00:37:14;102007.59;;;5.43;100.00
66381;BME280;53177;52.648;1.214;2024-03-07T00:39:39;102001.31;;;5.35;100.00
66381;BME280;53177;52.648;1.214;2024-03-07T00:42:05;102000.47;;;5.37;100.00
66381;BME280;53177;52.648;1.214;2024-03-07T00:44:31;102003.91;;;5.35;100.00
66381;BME280;53177;52.648;1.214;2024-03-07T00:46:56;101999.53;;;5.34;100.00
66381;BME280;53177;52.648;1.214;2024-03-07T00:49:22;102003.97;;;5.38;100.00
66381;BME280;53177;52.648;1.214;2024-03-07T00:51:48;102004.91;;;5.42;100.00
66381;BME280;53177;52.648;1.214;2024-03-07T00:54:13;101998.78;;;5.41;100.00
66381;BME280;53177;52.648;1.214;2024-03-07T00:56:39;102003.09;;;5.37;100.00
66381;BME280;53177;52.648;1.214;2024-03-07T00:59:05;102001.41;;;5.41;100.00
66381;BME280;53177;52.648;1.214;2024-03-07T01:01:31;101999.63;;;5.38;100.00
66381;BME280;53177;52.648;1.214;2024-03-07T01:03:58;102006.56;;;5.36;100.00
66381;BME280;53177;52.648;1.214;2024-03-07T01:06:23;102003.13;;;5.39;100.00
66381;BME280;53177;52.648;1.214;2024-03-07T01:08:49;102004.72;;;5.32;100.00
66381;BME280;53177;52.648;1.214;2024-03-07T01:11:15;102001.09;;;5.26;100.00
66381;BME280;53177;52.648;1.214;2024-03-07T01:13:41;102007.25;;;5.26;100.00
66381;BME280;53177;52.648;1.214;2024-03-07T01:16:07;102004.78;;;5.34;100.00
66381;BME280;53177;52.648;1.214;2024-03-07T01:18:33;101998.88;;;5.47;100.00
66381;BME280;53177;52.648;1.214;2024-03-07T01:21:02;102000.50;;;5.39;100.00
66381;BME280;53177;52.648;1.214;2024-03-07T01:23:28;101999.25;;;5.20;100.00
66381;BME280;53177;52.648;1.214;2024-03-07T01:25:58;101997.53;;;5.22;100.00
66381;BME280;53177;52.648;1.214;2024-03-07T01:28:24;101998.47;;;5.24;100.00
66381;BME280;53177;52.648;1.214;2024-03-07T01:30:50;101997.53;;;5.22;100.00
66381;BME280;53177;52.648;1.214;2024-03-07T01:33:16;101995.69;;;5.17;100.00
66381;BME280;53177;52.648;1.214;2024-03-07T01:35:42;101993.81;;;5.10;100.00
66381;BME280;53177;52.648;1.214;2024-03-07T01:38:07;101990.31;;;5.11;100.00
66381;BME280;53177;52.648;1.214;2024-03-07T01:40:36;101989.44;;;5.10;100.00
66381;BME280;53177;52.648;1.214;2024-03-07T01:43:02;101991.16;;;5.08;100.00
66381;BME280;53177;52.648;1.214;2024-03-07T01:45:27;101989.31;;;5.04;100.00
66381;BME280;53177;52.648;1.214;2024-03-07T01:47:53;101983.34;;;5.11;100.00
66381;BME280;53177;52.648;1.214;2024-03-07T01:50:20;101985.88;;;5.07;100.00
66381;BME280;53177;52.648;1.214;2024-03-07T01:52:46;101985.06;;;5.09;100.00
66381;BME280;53177;52.648;1.214;2024-03-07T01:55:12;101978.94;;;5.10;100.00
66381;BME280;53177;52.648;1.214;2024-03-07T01:57:38;101977.25;;;5.14;100.00
66381;BME280;53177;52.648;1.214;2024-03-07T02:00:04;101972.06;;;5.15;100.00
66381;BME280;53177;52.648;1.214;2024-03-07T02:02:32;101974.69;;;5.15;100.00
66381;BME280;53177;52.648;1.214;2024-03-07T02:04:57;101970.22;;;5.11;100.00
66381;BME280;53177;52.648;1.214;2024-03-07T02:07:23;101977.19;;;5.09;100.00
66381;BME280;53177;52.648;1.214;2024-03-07T02:09:48;101973.75;;;5.12;100.00
66381;BME280;53177;52.648;1.214;2024-03-07T02:12:14;101970.13;;;5.05;100.00
66381;BME280;53177;52.648;1.214;2024-03-07T02:14:39;101968.41;;;5.07;100.00
66381;BME280;53177;52.648;1.214;2024-03-07T02:17:05;101965.84;;;5.10;100.00
66381;BME280;53177;52.648;1.214;2024-03-07T02:19:30;101967.66;;;5.13;100.00
66381;BME280;53177;52.648;1.214;2024-03-07T02:21:57;101963.47;;;5.22;100.00
66381;BME280;53177;52.648;1.214;2024-03-07T02:24:22;101967.66;;;5.14;100.00
66381;BME280;53177;52.648;1.214;2024-03-07T02:26:49;101960.84;;;5.22;100.00
66381;BME280;53177;52.648;1.214;2024-03-07T02:29:14;101967.16;;;5.32;100.00
66381;BME280;53177;52.648;1.214;2024-03-07T02:31:39;101963.66;;;5.31;100.00
66381;BME280;53177;52.648;1.214;2024-03-07T02:34:07;101960.88;;;5.25;100.00
66381;BME280;53177;52.648;1.214;2024-03-07T02:36:33;101954.78;;;5.26;100.00
66381;BME280;53177;52.648;1.214;2024-03-07T02:38:59;101966.41;;;5.39;100.00
66381;BME280;53177;52.648;1.214;2024-03-07T02:41:25;101967.13;;;5.30;100.00
66381;BME280;53177;52.648;1.214;2024-03-07T02:43:51;101958.25;;;5.25;100.00
66381;BME280;53177;52.648;1.214;2024-03-07T02:46:17;101966.75;;;5.12;100.00
66381;BME280;53177;52.648;1.214;2024-03-07T02:48:42;101964.88;;;5.07;100.00
66381;BME280;53177;52.648;1.214;2024-03-07T02:51:08;101963.28;;;5.13;100.00
66381;BME280;53177;52.648;1.214;2024-03-07T02:53:33;101959.00;;;5.17;100.00
66381;BME280;53177;52.648;1.214;2024-03-07T02:55:59;101959.78;;;5.13;100.00
66381;BME280;53177;52.648;1.214;2024-03-07T02:58:24;101959.88;;;5.17;100.00
66381;BME280;53177;52.648;1.214;2024-03-07T03:00:59;101966.72;;;5.11;100.00
66381;BME280;53177;52.648;1.214;2024-03-07T03:03:26;101956.19;;;5.08;100.00
66381;BME280;53177;52.648;1.214;2024-03-07T03:05:51;101957.31;;;5.20;100.00
66381;BME280;53177;52.648;1.214;2024-03-07T03:08:17;101953.56;;;5.08;100.00
66381;BME280;53177;52.648;1.214;2024-03-07T03:10:43;101955.28;;;5.06;100.00
66381;BME280;53177;52.648;1.214;2024-03-07T03:13:09;101960.63;;;5.12;100.00
66381;BME280;53177;52.648;1.214;2024-03-07T03:15:35;101960.59;;;5.10;100.00
66381;BME280;53177;52.648;1.214;2024-03-07T03:18:00;101954.41;;;5.05;100.00
66381;BME280;53177;52.648;1.214;2024-03-07T03:20:26;101950.94;;;5.08;100.00
66381;BME280;53177;52.648;1.214;2024-03-07T03:22:59;101950.25;;;5.16;100.00
66381;BME280;53177;52.648;1.214;2024-03-07T03:25:24;101950.19;;;5.13;100.00
66381;BME280;53177;52.648;1.214;2024-03-07T03:27:51;101950.09;;;5.10;100.00
66381;BME280;53177;52.648;1.214;2024-03-07T03:30:17;101946.53;;;5.05;100.00
66381;BME280;53177;52.648;1.214;2024-03-07T03:32:47;101937.53;;;4.91;100.00
66381;BME280;53177;52.648;1.214;2024-03-07T03:35:16;101941.16;;;4.99;100.00
66381;BME280;53177;52.648;1.214;2024-03-07T03:37:42;101940.25;;;4.97;100.00
66381;BME280;53177;52.648;1.214;2024-03-07T03:40:09;101937.56;;;4.94;100.00
66381;BME280;53177;52.648;1.214;2024-03-07T03:42:39;101939.34;;;4.95;100.00
66381;BME280;53177;52.648;1.214;2024-03-07T03:45:06;101939.41;;;5.00;100.00
66381;BME280;53177;52.648;1.214;2024-03-07T03:47:36;101939.25;;;4.92;100.00
66381;BME280;53177;52.648;1.214;2024-03-07T03:50:05;101931.44;;;4.94;100.00
66381;BME280;53177;52.648;1.214;2024-03-07T03:52:31;101932.19;;;4.88;100.00
66381;BME280;53177;52.648;1.214;2024-03-07T03:54:59;101931.13;;;4.78;100.00
66381;BME280;53177;52.648;1.214;2024-03-07T03:57:25;101923.38;;;4.84;100.00
66381;BME280;53177;52.648;1.214;2024-03-07T03:59:51;101933.97;;;4.89;100.00
66381;BME280;53177;52.648;1.214;2024-03-07T04:02:16;101934.03;;;4.92;100.00
66381;BME280;53177;52.648;1.214;2024-03-07T04:04:42;101926.94;;;4.86;100.00
66381;BME280;53177;52.648;1.214;2024-03-07T04:07:07;101921.50;;;4.76;100.00
66381;BME280;53177;52.648;1.214;2024-03-07T04:09:33;101925.00;;;4.76;100.00
66381;BME280;53177;52.648;1.214;2024-03-07T04:11:58;101932.13;;;4.83;100.00
66381;BME280;53177;52.648;1.214;2024-03-07T04:14:25;101925.56;;;4.62;100.00
66381;BME280;53177;52.648;1.214;2024-03-07T04:16:51;101922.91;;;4.60;100.00
66381;BME280;53177;52.648;1.214;2024-03-07T04:19:17;101923.78;;;4.61;100.00
66381;BME280;53177;52.648;1.214;2024-03-07T04:21:45;101920.22;;;4.59;100.00
66381;BME280;53177;52.648;1.214;2024-03-07T04:24:11;101922.91;;;4.60;100.00
66381;BME280;53177;52.648;1.214;2024-03-07T04:26:37;101925.75;;;4.71;100.00
66381;BME280;53177;52.648;1.214;2024-03-07T04:29:02;101917.75;;;4.65;100.00
66381;BME280;53177;52.648;1.214;2024-03-07T04:31:28;101916.88;;;4.66;100.00
66381;BME280;53177;52.648;1.214;2024-03-07T04:33:53;101909.13;;;4.70;100.00
66381;BME280;53177;52.648;1.214;2024-03-07T04:36:18;101912.38;;;4.57;100.00
66381;BME280;53177;52.648;1.214;2024-03-07T04:38:44;101915.88;;;4.58;100.00
66381;BME280;53177;52.648;1.214;2024-03-07T04:41:13;101909.75;;;4.57;100.00
66381;BME280;53177;52.648;1.214;2024-03-07T04:43:40;101909.03;;;4.66;100.00
66381;BME280;53177;52.648;1.214;2024-03-07T04:46:06;101913.31;;;4.61;100.00
66381;BME280;53177;52.648;1.214;2024-03-07T04:48:32;101914.22;;;4.63;100.00
66381;BME280;53177;52.648;1.214;2024-03-07T04:50:58;101914.22;;;4.63;100.00
66381;BME280;53177;52.648;1.214;2024-03-07T04:53:24;101910.03;;;4.71;100.00
66381;BME280;53177;52.648;1.214;2024-03-07T04:55:49;101913.41;;;4.65;100.00
66381;BME280;53177;52.648;1.214;2024-03-07T04:58:16;101911.69;;;4.67;100.00
66381;BME280;53177;52.648;1.214;2024-03-07T05:00:41;101908.19;;;4.65;100.00
66381;BME280;53177;52.648;1.214;2024-03-07T05:03:07;101910.94;;;4.73;100.00
66381;BME280;53177;52.648;1.214;2024-03-07T05:05:32;101916.25;;;4.76;100.00
66381;BME280;53177;52.648;1.214;2024-03-07T05:07:57;101910.06;;;4.74;100.00
66381;BME280;53177;52.648;1.214;2024-03-07T05:10:23;101909.22;;;4.75;100.00
66381;BME280;53177;52.648;1.214;2024-03-07T05:12:49;101906.72;;;4.79;100.00
66381;BME280;53177;52.648;1.214;2024-03-07T05:15:15;101908.59;;;4.86;100.00
66381;BME280;53177;52.648;1.214;2024-03-07T05:17:41;101910.44;;;4.92;100.00
66381;BME280;53177;52.648;1.214;2024-03-07T05:20:08;101910.44;;;4.92;100.00
66381;BME280;53177;52.648;1.214;2024-03-07T05:22:40;101911.16;;;4.85;100.00
66381;BME280;53177;52.648;1.214;2024-03-07T05:25:09;101905.94;;;4.85;100.00
66381;BME280;53177;52.648;1.214;2024-03-07T05:27:35;101906.84;;;4.87;100.00
66381;BME280;53177;52.648;1.214;2024-03-07T05:30:02;101915.66;;;4.90;100.00
66381;BME280;53177;52.648;1.214;2024-03-07T05:32:31;101909.53;;;4.91;100.00
66381;BME280;53177;52.648;1.214;2024-03-07T05:34:57;101914.00;;;4.96;100.00
66381;BME280;53177;52.648;1.214;2024-03-07T05:37:23;101911.38;;;4.96;100.00
66381;BME280;53177;52.648;1.214;2024-03-07T05:39:49;101914.94;;;4.98;100.00
66381;BME280;53177;52.648;1.214;2024-03-07T05:42:15;101915.78;;;4.97;100.00
66381;BME280;53177;52.648;1.214;2024-03-07T05:44:43;101915.81;;;4.98;100.00
66381;BME280;53177;52.648;1.214;2024-03-07T05:47:09;101909.81;;;5.05;100.00
66381;BME280;53177;52.648;1.214;2024-03-07T05:49:35;101920.19;;;4.99;100.00
66381;BME280;53177;52.648;1.214;2024-03-07T05:52:02;101911.56;;;5.05;100.00
66381;BME280;53177;52.648;1.214;2024-03-07T05:54:28;101903.75;;;5.06;100.00
66381;BME280;53177;52.648;1.214;2024-03-07T05:56:54;101909.81;;;5.05;100.00
66381;BME280;53177;52.648;1.214;2024-03-07T05:59:20;101912.53;;;5.10;100.00
66381;BME280;53177;52.648;1.214;2024-03-07T06:01:46;101910.91;;;5.16;100.00
66381;BME280;53177;52.648;1.214;2024-03-07T06:04:12;101909.19;;;5.18;100.00
66381;BME280;53177;52.648;1.214;2024-03-07T06:06:38;101910.06;;;5.19;100.00
66381;BME280;53177;52.648;1.214;2024-03-07T06:09:06;101908.31;;;5.18;100.00
66381;BME280;53177;52.648;1.214;2024-03-07T06:11:38;101906.59;;;5.20;100.00
66381;BME280;53177;52.648;1.214;2024-03-07T06:14:05;101912.75;;;5.22;100.00
66381;BME280;53177;52.648;1.214;2024-03-07T06:16:36;101908.44;;;5.25;100.00
66381;BME280;53177;52.648;1.214;2024-03-07T06:19:04;101909.41;;;5.30;100.00
66381;BME280;53177;52.648;1.214;2024-03-07T06:21:30;101919.03;;;5.30;100.00
66381;BME280;53177;52.648;1.214;2024-03-07T06:23:59;101919.06;;;5.33;100.00
66381;BME280;53177;52.648;1.214;2024-03-07T06:26:35;101921.78;;;5.37;100.00
66381;BME280;53177;52.648;1.214;2024-03-07T06:29:20;101922.69;;;5.39;100.00
66381;BME280;53177;52.648;1.214;2024-03-07T06:31:46;101918.34;;;5.42;100.00
66381;BME280;53177;52.648;1.214;2024-03-07T06:34:11;101920.97;;;5.42;100.00
66381;BME280;53177;52.648;1.214;2024-03-07T06:36:38;101928.00;;;5.44;100.00
66381;BME280;53177;52.648;1.214;2024-03-07T06:39:04;101921.91;;;5.45;100.00
66381;BME280;53177;52.648;1.214;2024-03-07T06:41:35;101927.16;;;5.45;100.00
66381;BME280;53177;52.648;1.214;2024-03-07T06:44:02;101917.56;;;5.46;100.00
66381;BME280;53177;52.648;1.214;2024-03-07T06:46:28;101918.44;;;5.48;100.00
66381;BME280;53177;52.648;1.214;2024-03-07T06:48:54;101921.13;;;5.49;100.00
66381;BME280;53177;52.648;1.214;2024-03-07T06:51:21;101923.75;;;5.49;100.00
66381;BME280;53177;52.648;1.214;2024-03-07T06:53:47;101916.72;;;5.48;100.00
66381;BME280;53177;52.648;1.214;2024-03-07T06:56:14;101915.03;;;5.50;100.00
66381;BME280;53177;52.648;1.214;2024-03-07T06:58:40;101913.19;;;5.46;100.00
66381;BME280;53177;52.648;1.214;2024-03-07T07:01:06;101910.56;;;5.46;100.00
66381;BME280;53177;52.648;1.214;2024-03-07T07:03:35;101907.88;;;5.42;100.00
66381;BME280;53177;52.648;1.214;2024-03-07T07:06:01;101913.16;;;5.43;100.00
66381;BME280;53177;52.648;1.214;2024-03-07T07:08:26;101918.31;;;5.40;100.00
66381;BME280;53177;52.648;1.214;2024-03-07T07:10:54;101923.56;;;5.38;100.00
66381;BME280;53177;52.648;1.214;2024-03-07T07:13:21;101915.69;;;5.38;100.00
66381;BME280;53177;52.648;1.214;2024-03-07T07:15:46;101910.34;;;5.34;100.00
66381;BME280;53177;52.648;1.214;2024-03-07T07:18:12;101908.63;;;5.34;100.00
66381;BME280;53177;52.648;1.214;2024-03-07T07:20:40;101907.72;;;5.34;100.00
66381;BME280;53177;52.648;1.214;2024-03-07T07:23:05;101907.69;;;5.32;100.00
66381;BME280;53177;52.648;1.214;2024-03-07T07:25:31;101912.13;;;5.36;100.00
66381;BME280;53177;52.648;1.214;2024-03-07T07:27:56;101912.19;;;5.38;100.00
66381;BME280;53177;52.648;1.214;2024-03-07T07:30:23;101914.81;;;5.38;100.00
66381;BME280;53177;52.648;1.214;2024-03-07T07:32:50;101917.50;;;5.44;100.00
66381;BME280;53177;52.648;1.214;2024-03-07T07:35:16;101925.44;;;5.47;100.00
66381;BME280;53177;52.648;1.214;2024-03-07T07:37:43;101915.81;;;5.46;100.00
66381;BME280;53177;52.648;1.214;2024-03-07T07:40:15;101922.00;;;5.50;100.00
66381;BME280;53177;52.648;1.214;2024-03-07T07:42:43;101917.69;;;5.53;100.00
66381;BME280;53177;52.648;1.214;2024-03-07T07:45:10;101917.72;;;5.56;100.00
66381;BME280;53177;52.648;1.214;2024-03-07T07:47:39;101916.94;;;5.62;100.00
66381;BME280;53177;52.648;1.214;2024-03-07T07:52:42;101908.38;;;5.72;100.00
66381;BME280;53177;52.648;1.214;2024-03-07T07:55:08;101905.81;;;5.75;100.00
66381;BME280;53177;52.648;1.214;2024-03-07T07:57:44;101898.84;;;5.78;100.00
66381;BME280;53177;52.648;1.214;2024-03-07T08:00:16;101900.69;;;5.84;100.00
66381;BME280;53177;52.648;1.214;2024-03-07T08:02:52;101885.97;;;5.91;100.00
66381;BME280;53177;52.648;1.214;2024-03-07T08:05:19;101899.09;;;5.91;100.00
66381;BME280;53177;52.648;1.214;2024-03-07T08:07:46;101898.06;;;5.84;100.00
66381;BME280;53177;52.648;1.214;2024-03-07T08:10:13;101901.69;;;5.89;100.00
66381;BME280;53177;52.648;1.214;2024-03-07T08:12:39;101896.31;;;5.83;100.00
66381;BME280;53177;52.648;1.214;2024-03-07T08:15:08;101900.78;;;5.87;100.00
66381;BME280;53177;52.648;1.214;2024-03-07T08:17:34;101892.09;;;5.93;100.00
66381;BME280;53177;52.648;1.214;2024-03-07T08:20:00;101892.16;;;5.96;100.00
66381;BME280;53177;52.648;1.214;2024-03-07T08:22:26;101896.59;;;6.00;100.00
66381;BME280;53177;52.648;1.214;2024-03-07T08:24:51;101895.69;;;5.98;100.00
66381;BME280;53177;52.648;1.214;2024-03-07T08:27:17;101888.81;;;6.06;100.00
66381;BME280;53177;52.648;1.214;2024-03-07T08:29:43;101899.38;;;6.09;100.00
66381;BME280;53177;52.648;1.214;2024-03-07T08:32:08;101887.97;;;6.08;100.00
66381;BME280;53177;52.648;1.214;2024-03-07T08:34:34;101894.09;;;6.10;100.00
66381;BME280;53177;52.648;1.214;2024-03-07T08:36:59;101885.38;;;6.11;100.00
66381;BME280;53177;52.648;1.214;2024-03-07T08:39:24;101889.63;;;6.03;100.00
66381;BME280;53177;52.648;1.214;2024-03-07T08:41:50;101887.16;;;6.12;100.00
66381;BME280;53177;52.648;1.214;2024-03-07T08:44:15;101885.44;;;6.17;100.00
66381;BME280;53177;52.648;1.214;2024-03-07T08:46:40;101890.78;;;6.20;100.00
66381;BME280;53177;52.648;1.214;2024-03-07T08:49:07;101886.44;;;6.24;100.00
66381;BME280;53177;52.648;1.214;2024-03-07T08:51:32;101882.94;;;6.25;100.00
66381;BME280;53177;52.648;1.214;2024-03-07T08:53:57;101890.78;;;6.22;100.00
66381;BME280;53177;52.648;1.214;2024-03-07T08:56:24;101889.03;;;6.22;100.00
66381;BME280;53177;52.648;1.214;2024-03-07T08:58:49;101891.63;;;6.21;100.00
66381;BME280;53177;52.648;1.214;2024-03-07T09:01:15;101888.03;;;6.13;100.00
66381;BME280;53177;52.648;1.214;2024-03-07T09:03:40;101891.59;;;6.16;100.00
66381;BME280;53177;52.648;1.214;2024-03-07T09:06:06;101887.25;;;6.20;100.00
66381;BME280;53177;52.648;1.214;2024-03-07T09:08:32;101888.09;;;6.17;100.00
66381;BME280;53177;52.648;1.214;2024-03-07T09:10:57;101888.97;;;6.16;100.00
66381;BME280;53177;52.648;1.214;2024-03-07T09:13:23;101894.22;;;6.18;100.00
66381;BME280;53177;52.648;1.214;2024-03-07T09:15:48;101893.41;;;6.20;100.00
66381;BME280;53177;52.648;1.214;2024-03-07T09:18:14;101894.31;;;6.25;100.00
66381;BME280;53177;52.648;1.214;2024-03-07T09:20:40;101894.38;;;6.28;100.00
66381;BME280;53177;52.648;1.214;2024-03-07T09:23:06;101893.44;;;6.25;100.00
66381;BME280;53177;52.648;1.214;2024-03-07T09:25:31;101890.03;;;6.32;100.00
66381;BME280;53177;52.648;1.214;2024-03-07T09:27:58;101887.44;;;6.33;100.00
66381;BME280;53177;52.648;1.214;2024-03-07T09:30:25;101894.50;;;6.38;100.00
66381;BME280;53177;52.648;1.214;2024-03-07T09:32:55;101885.81;;;6.43;100.00
66381;BME280;53177;52.648;1.214;2024-03-07T09:35:21;101884.97;;;6.46;100.00
66381;BME280;53177;52.648;1.214;2024-03-07T09:37:47;101882.41;;;6.52;100.00
66381;BME280;53177;52.648;1.214;2024-03-07T09:40:13;101878.84;;;6.45;100.00
66381;BME280;53177;52.648;1.214;2024-03-07T09:42:46;101878.94;;;6.53;100.00
66381;BME280;53177;52.648;1.214;2024-03-07T09:45:20;101879.09;;;6.66;100.00
66381;BME280;53177;52.648;1.214;2024-03-07T09:47:48;101878.25;;;6.69;100.00
66381;BME280;53177;52.648;1.214;2024-03-07T09:50:16;101870.44;;;6.75;100.00
66381;BME280;53177;52.648;1.214;2024-03-07T09:52:45;101866.09;;;6.78;100.00
66381;BME280;53177;52.648;1.214;2024-03-07T09:55:11;101869.50;;;6.68;100.00
66381;BME280;53177;52.648;1.214;2024-03-07T09:57:37;101870.31;;;6.64;100.00
66381;BME280;53177;52.648;1.214;2024-03-07T10:00:05;101872.94;;;6.66;100.00
66381;BME280;53177;52.648;1.214;2024-03-07T10:02:32;101874.59;;;6.56;100.00
66381;BME280;53177;52.648;1.214;2024-03-07T10:05:04;101874.44;;;6.44;100.00
66381;BME280;53177;52.648;1.214;2024-03-07T10:07:31;101879.78;;;6.50;100.00
66381;BME280;53177;52.648;1.214;2024-03-07T10:09:56;101877.13;;;6.49;100.00
66381;BME280;53177;52.648;1.214;2024-03-07T10:12:24;101868.47;;;6.56;100.00
66381;BME280;53177;52.648;1.214;2024-03-07T10:14:56;101867.63;;;6.60;100.00
66381;BME280;53177;52.648;1.214;2024-03-07T10:17:24;101862.38;;;6.60;100.00
66381;BME280;53177;52.648;1.214;2024-03-07T10:19:51;101859.78;;;6.63;100.00
66381;BME280;53177;52.648;1.214;2024-03-07T10:22:18;101858.88;;;6.59;100.00
66381;BME280;53177;52.648;1.214;2024-03-07T10:24:55;101863.34;;;6.68;100.00
66381;BME280;53177;52.648;1.214;2024-03-07T10:27:21;101848.38;;;6.62;100.00
66381;BME280;53177;52.648;1.214;2024-03-07T10:29:48;101847.63;;;6.71;100.00
66381;BME280;53177;52.648;1.214;2024-03-07T10:32:19;101849.41;;;6.76;100.00
66381;BME280;53177;52.648;1.214;2024-03-07T10:34:45;101850.38;;;6.84;100.00
66381;BME280;53177;52.648;1.214;2024-03-07T10:37:12;101843.44;;;6.90;100.00
66381;BME280;53177;52.648;1.214;2024-03-07T10:39:44;101849.50;;;6.84;100.00
66381;BME280;53177;52.648;1.214;2024-03-07T10:42:13;101848.56;;;6.76;100.00
66381;BME280;53177;52.648;1.214;2024-03-07T10:44:44;101852.06;;;6.78;100.00
66381;BME280;53177;52.648;1.214;2024-03-07T10:47:18;101843.28;;;6.77;100.00
66381;BME280;53177;52.648;1.214;2024-03-07T10:49:57;101840.72;;;6.82;100.00
66381;BME280;53177;52.648;1.214;2024-03-07T10:52:39;101847.78;;;6.86;100.00
66381;BME280;53177;52.648;1.214;2024-03-07T10:57:58;101834.63;;;6.86;100.00
66381;BME280;53177;52.648;1.214;2024-03-07T11:00:26;101833.81;;;6.92;100.00
66381;BME280;53177;52.648;1.214;2024-03-07T11:02:56;101842.69;;;7.01;100.00
66381;BME280;53177;52.648;1.214;2024-03-07T11:05:25;101842.72;;;7.07;100.00
66381;BME280;53177;52.648;1.214;2024-03-07T11:07:55;101840.13;;;7.09;100.00
66381;BME280;53177;52.648;1.214;2024-03-07T11:10:21;101833.16;;;7.12;100.00
66381;BME280;53177;52.648;1.214;2024-03-07T11:12:47;101822.59;;;7.11;100.00
66381;BME280;53177;52.648;1.214;2024-03-07T11:15:15;101829.59;;;7.07;100.00
66381;BME280;53177;52.648;1.214;2024-03-07T11:17:46;101828.72;;;7.10;100.00
66381;BME280;53177;52.648;1.214;2024-03-07T11:20:22;101828.75;;;7.11;100.00
66381;BME280;53177;52.648;1.214;2024-03-07T11:22:49;101824.41;;;7.18;100.00
66381;BME280;53177;52.648;1.214;2024-03-07T11:25:19;101821.00;;;7.26;100.00
66381;BME280;53177;52.648;1.214;2024-03-07T11:27:57;101820.16;;;7.33;100.00
66381;BME280;53177;52.648;1.214;2024-03-07T11:30:24;101818.38;;;7.26;100.00
66381;BME280;53177;52.648;1.214;2024-03-07T11:32:50;101810.41;;;7.19;100.00
66381;BME280;53177;52.648;1.214;2024-03-07T11:35:19;101808.72;;;7.28;100.00
66381;BME280;53177;52.648;1.214;2024-03-07T11:37:57;101808.72;;;7.27;100.00
66381;BME280;53177;52.648;1.214;2024-03-07T11:42:53;101806.13;;;7.31;100.00
66381;BME280;53177;52.648;1.214;2024-03-07T11:45:19;101805.31;;;7.40;100.00
66381;BME280;53177;52.648;1.214;2024-03-07T11:47:58;101801.84;;;7.46;100.00
66381;BME280;53177;52.648;1.214;2024-03-07T11:53:03;101796.59;;;7.47;100.00
66381;BME280;53177;52.648;1.214;2024-03-07T11:55:33;101789.53;;;7.42;100.00
66381;BME280;53177;52.648;1.214;2024-03-07T11:58:14;101793.16;;;7.57;100.00
66381;BME280;53177;52.648;1.214;2024-03-07T12:00:44;101786.13;;;7.53;100.00
66381;BME280;53177;52.648;1.214;2024-03-07T12:03:11;101787.88;;;7.53;100.00
66381;BME280;53177;52.648;1.214;2024-03-07T12:05:42;101779.84;;;7.38;100.00
66381;BME280;53177;52.648;1.214;2024-03-07T12:08:09;101780.72;;;7.35;100.00
66381;BME280;53177;52.648;1.214;2024-03-07T12:10:36;101784.16;;;7.28;100.00
66381;BME280;53177;52.648;1.214;2024-03-07T12:13:04;101776.22;;;7.22;100.00
66381;BME280;53177;52.648;1.214;2024-03-07T12:15:30;101775.28;;;7.12;100.00
66381;BME280;53177;52.648;1.214;2024-03-07T12:17:57;101775.25;;;7.11;100.00
66381;BME280;53177;52.648;1.214;2024-03-07T12:20:23;101770.91;;;7.17;100.00
66381;BME280;53177;52.648;1.214;2024-03-07T12:22:59;101762.16;;;7.15;100.00
66381;BME280;53177;52.648;1.214;2024-03-07T12:25:27;101763.09;;;7.25;100.00
66381;BME280;53177;52.648;1.214;2024-03-07T12:28:08;101756.94;;;7.20;100.00
66381;BME280;53177;52.648;1.214;2024-03-07T12:33:11;101750.69;;;7.10;100.00
66381;BME280;53177;52.648;1.214;2024-03-07T12:35:39;101747.22;;;7.14;100.00
66381;BME280;53177;52.648;1.214;2024-03-07T12:38:08;101741.13;;;7.18;100.00
66381;BME280;53177;52.648;1.214;2024-03-07T12:40:36;101748.94;;;7.08;100.00
66381;BME280;53177;52.648;1.214;2024-03-07T12:43:12;101740.19;;;7.10;100.00
66381;BME280;53177;52.648;1.214;2024-03-07T12:45:47;101730.56;;;7.17;100.00
66381;BME280;53177;52.648;1.214;2024-03-07T12:48:13;101733.31;;;7.27;100.00
66381;BME280;53177;52.648;1.214;2024-03-07T12:50:40;101724.59;;;7.36;100.00
66381;BME280;53177;52.648;1.214;2024-03-07T12:53:06;101713.22;;;7.39;100.00
66381;BME280;53177;52.648;1.214;2024-03-07T12:55:40;101715.91;;;7.49;100.00
66381;BME280;53177;52.648;1.214;2024-03-07T12:58:09;101713.22;;;7.43;100.00
66381;BME280;53177;52.648;1.214;2024-03-07T13:00:35;101721.00;;;7.28;100.00
66381;BME280;53177;52.648;1.214;2024-03-07T13:03:01;101713.19;;;7.34;100.00